createdAt,value
2022-07-30T00:02:20.984Z,20.10
2022-07-30T00:04:49.215Z,20.00
2022-07-30T00:07:18.833Z,20.00
2022-07-30T00:09:47.073Z,20.00
2022-07-30T00:12:15.560Z,20.00
2022-07-30T00:14:43.804Z,20.00
2022-07-30T00:17:12.035Z,19.90
2022-07-30T00:19:40.335Z,19.90
2022-07-30T00:22:08.528Z,19.90
2022-07-30T00:24:38.135Z,19.80
2022-07-30T00:27:06.841Z,19.80
2022-07-30T00:29:35.220Z,19.80
2022-07-30T00:32:05.619Z,19.70
2022-07-30T00:34:33.857Z,19.70
2022-07-30T00:37:02.557Z,19.70
2022-07-30T00:39:31.103Z,19.70
2022-07-30T00:42:02.020Z,19.70
2022-07-30T00:44:30.649Z,19.60
2022-07-30T00:46:59.300Z,19.70
2022-07-30T00:49:27.882Z,19.60
2022-07-30T00:51:56.109Z,19.60
2022-07-30T00:54:24.389Z,19.60
2022-07-30T00:56:52.884Z,19.60
2022-07-30T00:59:22.541Z,19.50
2022-07-30T01:01:50.895Z,19.50
2022-07-30T01:04:19.136Z,19.50
2022-07-30T01:06:47.341Z,19.50
2022-07-30T01:09:15.807Z,19.50
2022-07-30T01:11:44.103Z,19.50
2022-07-30T01:14:12.359Z,19.50
2022-07-30T01:16:43.247Z,19.50
2022-07-30T01:19:34.232Z,19.50
2022-07-30T01:22:10.534Z,19.50
2022-07-30T01:24:42.525Z,19.50
2022-07-30T01:27:13.970Z,19.40
2022-07-30T01:29:43.967Z,19.40
2022-07-30T01:32:12.266Z,19.40
2022-07-30T01:34:40.519Z,19.40
2022-07-30T01:37:09.576Z,19.40
2022-07-30T01:39:38.317Z,19.40
2022-07-30T01:42:08.488Z,19.30
2022-07-30T01:44:38.170Z,19.30
2022-07-30T01:47:06.699Z,19.30
2022-07-30T01:49:35.112Z,19.30
2022-07-30T01:52:03.714Z,19.20
2022-07-30T01:54:32.021Z,19.20
2022-07-30T01:57:00.840Z,19.20
2022-07-30T01:59:29.536Z,19.20
2022-07-30T02:01:59.638Z,19.20
2022-07-30T02:04:28.263Z,19.20
2022-07-30T02:07:01.629Z,19.10
2022-07-30T02:09:35.553Z,19.10
2022-07-30T02:12:23.074Z,19.10
2022-07-30T02:14:53.459Z,19.10
2022-07-30T02:17:30.459Z,19.10
2022-07-30T02:20:09.236Z,19.10
2022-07-30T02:22:40.604Z,19.00
2022-07-30T02:25:10.604Z,19.00
2022-07-30T02:27:40.500Z,19.00
2022-07-30T02:30:10.738Z,19.00
2022-07-30T02:32:42.132Z,19.00
2022-07-30T02:35:14.898Z,19.00
2022-07-30T02:37:44.480Z,19.00
2022-07-30T02:40:15.854Z,18.90
2022-07-30T02:42:44.741Z,18.90
2022-07-30T02:45:13.535Z,18.90
2022-07-30T02:47:43.093Z,18.80
2022-07-30T02:50:11.676Z,18.80
2022-07-30T02:52:39.974Z,18.80
2022-07-30T02:55:09.835Z,18.80
2022-07-30T02:57:43.248Z,18.80
2022-07-30T03:00:13.318Z,18.80
2022-07-30T03:02:43.928Z,18.80
2022-07-30T03:05:12.152Z,18.70
2022-07-30T03:07:40.420Z,18.70
2022-07-30T03:10:09.756Z,18.70
2022-07-30T03:12:37.992Z,18.70
2022-07-30T03:15:07.791Z,18.60
2022-07-30T03:17:39.348Z,18.60
2022-07-30T03:20:11.747Z,18.60
2022-07-30T03:22:45.382Z,18.60
2022-07-30T03:25:15.522Z,18.60
2022-07-30T03:27:44.102Z,18.50
2022-07-30T03:30:13.515Z,18.50
2022-07-30T03:32:42.887Z,18.50
2022-07-30T03:35:17.507Z,18.50
2022-07-30T03:37:48.618Z,18.50
2022-07-30T03:40:17.006Z,18.40
2022-07-30T03:42:45.563Z,18.50
2022-07-30T03:45:14.490Z,18.50
2022-07-30T03:47:43.134Z,18.50
2022-07-30T03:50:13.749Z,18.50
2022-07-30T03:52:42.150Z,18.40
2022-07-30T03:55:11.957Z,18.40
2022-07-30T03:57:40.248Z,18.40
2022-07-30T04:00:13.993Z,18.40
2022-07-30T04:02:43.571Z,18.40
2022-07-30T04:05:13.437Z,18.40
2022-07-30T04:07:45.189Z,18.40
2022-07-30T04:10:13.809Z,18.30
2022-07-30T04:12:42.051Z,18.30
2022-07-30T04:16:37.261Z,18.40
2022-07-30T04:18:03.189Z,18.40
2022-07-30T04:20:35.715Z,18.40
2022-07-30T04:23:04.009Z,18.40
2022-07-30T04:25:32.403Z,18.50
2022-07-30T04:28:03.814Z,18.60
2022-07-30T04:30:33.349Z,18.70
2022-07-30T04:33:01.608Z,18.70
2022-07-30T04:35:51.098Z,18.70
2022-07-30T04:38:19.627Z,18.70
2022-07-30T04:40:48.047Z,18.70
2022-07-30T04:43:16.265Z,18.70
2022-07-30T04:45:44.924Z,18.70
2022-07-30T04:48:13.141Z,18.70
2022-07-30T04:50:43.709Z,18.70
2022-07-30T04:53:11.987Z,18.70
2022-07-30T04:55:43.914Z,18.70
2022-07-30T04:58:12.285Z,18.60
2022-07-30T05:00:41.384Z,18.60
2022-07-30T05:03:09.977Z,18.60
2022-07-30T05:05:38.269Z,18.60
2022-07-30T05:08:06.756Z,18.60
2022-07-30T05:10:34.968Z,18.60
2022-07-30T05:13:04.604Z,18.60
2022-07-30T05:15:37.425Z,18.70
2022-07-30T05:18:06.169Z,18.70
2022-07-30T05:20:34.439Z,18.70
2022-07-30T05:23:02.601Z,18.80
2022-07-30T05:25:30.857Z,18.80
2022-07-30T05:27:59.172Z,18.80
2022-07-30T05:30:28.836Z,18.80
2022-07-30T05:32:57.488Z,18.80
2022-07-30T05:35:25.894Z,18.80
2022-07-30T05:37:54.161Z,18.80
2022-07-30T05:40:22.731Z,18.80
2022-07-30T05:42:50.970Z,18.80
2022-07-30T05:45:19.244Z,18.80
2022-07-30T05:47:49.252Z,18.90
2022-07-30T05:50:17.510Z,19.00
2022-07-30T05:52:45.713Z,19.00
2022-07-30T05:55:13.961Z,19.10
2022-07-30T05:57:42.360Z,19.20
2022-07-30T06:00:12.096Z,19.20
2022-07-30T06:02:40.763Z,19.10
2022-07-30T06:05:10.657Z,19.10
2022-07-30T06:07:39.061Z,19.20
2022-07-30T06:10:08.223Z,19.20
2022-07-30T06:12:36.403Z,19.20
2022-07-30T06:15:04.986Z,19.20
2022-07-30T06:17:41.285Z,19.10
2022-07-30T06:20:12.817Z,19.10
2022-07-30T06:22:41.103Z,19.20
2022-07-30T06:25:10.049Z,19.20
2022-07-30T06:27:39.918Z,19.30
2022-07-30T06:30:10.114Z,19.30
2022-07-30T06:32:38.338Z,19.40
2022-07-30T06:35:07.798Z,19.40
2022-07-30T06:37:58.652Z,19.50
2022-07-30T06:40:25.785Z,19.40
2022-07-30T06:42:54.012Z,19.50
2022-07-30T06:45:22.327Z,19.50
2022-07-30T06:47:50.578Z,19.70
2022-07-30T06:50:20.337Z,19.80
2022-07-30T06:52:49.933Z,20.00
2022-07-30T06:55:18.458Z,20.10
2022-07-30T06:57:46.638Z,20.20
2022-07-30T07:00:15.670Z,20.30
2022-07-30T07:02:43.897Z,20.40
2022-07-30T07:05:12.146Z,20.50
2022-07-30T07:07:46.325Z,20.60
2022-07-30T07:10:22.187Z,20.80
2022-07-30T07:12:50.502Z,20.90
2022-07-30T07:15:18.878Z,21.00
2022-07-30T07:17:51.295Z,21.10
2022-07-30T07:20:19.532Z,21.20
2022-07-30T07:22:47.742Z,21.20
2022-07-30T07:25:16.081Z,21.10
2022-07-30T07:27:45.662Z,21.10
2022-07-30T07:30:34.003Z,21.10
2022-07-30T07:33:02.276Z,21.30
2022-07-30T07:35:30.496Z,21.20
2022-07-30T07:37:59.046Z,21.30
2022-07-30T07:40:27.406Z,21.40
2022-07-30T07:42:56.968Z,21.50
2022-07-30T07:45:25.493Z,21.50
2022-07-30T07:47:53.723Z,21.60
2022-07-30T07:50:22.034Z,21.70
2022-07-30T07:52:50.518Z,21.80
2022-07-30T07:55:18.813Z,22.00
2022-07-30T07:57:47.222Z,22.20
2022-07-30T08:00:19.113Z,22.50
2022-07-30T08:02:47.558Z,22.60
2022-07-30T08:05:15.991Z,22.60
2022-07-30T08:07:44.641Z,22.70
2022-07-30T08:10:15.106Z,22.70
2022-07-30T08:12:44.133Z,22.90
2022-07-30T08:15:12.569Z,22.80
2022-07-30T08:17:45.740Z,22.80
2022-07-30T08:20:15.654Z,22.80
2022-07-30T08:22:43.930Z,22.70
2022-07-30T08:25:21.722Z,22.80
2022-07-30T08:27:50.786Z,22.90
2022-07-30T08:30:21.042Z,23.00
2022-07-30T08:32:50.770Z,23.10
2022-07-30T08:35:19.046Z,23.10
2022-07-30T08:37:47.343Z,23.10
2022-07-30T08:40:15.616Z,23.10
2022-07-30T08:42:43.856Z,23.10
2022-07-30T08:45:12.359Z,23.10
2022-07-30T08:47:41.885Z,23.20
2022-07-30T08:50:11.625Z,23.00
2022-07-30T08:52:45.046Z,23.00
2022-07-30T08:55:13.305Z,23.00
2022-07-30T08:57:41.507Z,22.90
2022-07-30T09:00:11.961Z,22.90
2022-07-30T09:02:40.240Z,23.10
2022-07-30T09:05:10.913Z,23.40
2022-07-30T09:07:39.412Z,23.70
2022-07-30T09:10:08.687Z,23.80
2022-07-30T09:12:39.747Z,23.90
2022-07-30T09:15:14.139Z,24.00
2022-07-30T09:17:51.387Z,24.10
2022-07-30T09:20:21.202Z,24.10
2022-07-30T09:22:51.782Z,24.30
2022-07-30T09:25:35.614Z,24.40
2022-07-30T09:28:03.958Z,24.40
2022-07-30T09:30:46.585Z,24.40
2022-07-30T09:33:14.936Z,24.60
2022-07-30T09:35:44.616Z,24.80
2022-07-30T09:38:13.052Z,24.70
2022-07-30T09:40:42.966Z,24.60
2022-07-30T09:43:12.244Z,24.60
2022-07-30T09:45:56.665Z,24.50
2022-07-30T09:48:27.965Z,24.50
2022-07-30T09:50:57.847Z,24.50
2022-07-30T09:53:26.413Z,24.50
2022-07-30T09:55:54.690Z,24.20
2022-07-30T09:58:27.149Z,24.20
2022-07-30T10:00:58.408Z,24.30
2022-07-30T10:03:34.328Z,24.30
2022-07-30T10:06:11.926Z,24.00
2022-07-30T10:08:42.635Z,23.90
2022-07-30T10:11:15.887Z,24.00
2022-07-30T10:13:45.775Z,24.00
2022-07-30T10:16:14.259Z,24.00
2022-07-30T10:18:45.176Z,24.10
2022-07-30T10:21:16.916Z,24.20
2022-07-30T10:23:46.035Z,24.30
2022-07-30T10:26:19.051Z,24.50
2022-07-30T10:28:48.089Z,24.60
2022-07-30T10:31:49.159Z,24.70
2022-07-30T10:34:04.656Z,24.70
2022-07-30T10:36:34.506Z,24.70
2022-07-30T10:39:03.018Z,24.90
2022-07-30T10:41:48.033Z,24.80
2022-07-30T10:44:42.048Z,24.80
2022-07-30T10:47:14.054Z,24.80
2022-07-30T10:49:43.159Z,24.90
2022-07-30T10:52:13.163Z,25.00
2022-07-30T10:54:44.407Z,25.10
2022-07-30T10:57:22.695Z,25.30
2022-07-30T11:00:13.559Z,25.50
2022-07-30T11:03:18.059Z,25.50
2022-07-30T11:05:50.251Z,25.50
2022-07-30T11:08:42.851Z,25.70
2022-07-30T11:12:01.821Z,25.80
2022-07-30T11:15:07.360Z,25.90
2022-07-30T11:18:12.143Z,26.10
2022-07-30T11:20:41.411Z,26.20
2022-07-30T11:23:40.588Z,26.30
2022-07-30T11:26:14.157Z,26.20
2022-07-30T11:28:45.131Z,26.20
2022-07-30T11:32:07.392Z,26.20
2022-07-30T11:34:31.323Z,26.20
2022-07-30T11:37:19.076Z,26.30
2022-07-30T11:40:12.639Z,26.40
2022-07-30T11:42:42.628Z,26.50
2022-07-30T11:45:32.961Z,26.60
2022-07-30T11:48:01.569Z,26.80
2022-07-30T11:50:32.111Z,26.80
2022-07-30T11:53:02.033Z,26.90
2022-07-30T11:55:33.614Z,26.60
2022-07-30T11:58:03.510Z,26.60
2022-07-30T12:00:39.761Z,26.50
2022-07-30T12:03:12.600Z,26.30
2022-07-30T12:05:41.005Z,26.20
2022-07-30T12:08:09.367Z,26.40
2022-07-30T12:11:00.715Z,26.40
2022-07-30T12:13:45.084Z,26.60
2022-07-30T12:16:15.922Z,26.70
2022-07-30T12:18:44.323Z,26.80
2022-07-30T12:21:13.653Z,26.90
2022-07-30T12:23:43.568Z,27.00
2022-07-30T12:26:23.308Z,27.00
2022-07-30T12:28:52.725Z,26.80
2022-07-30T12:31:21.066Z,26.70
2022-07-30T12:33:49.372Z,26.60
2022-07-30T12:36:31.803Z,26.70
2022-07-30T12:39:00.225Z,26.90
2022-07-30T12:41:45.778Z,27.10
2022-07-30T12:44:36.029Z,27.30
2022-07-30T12:47:05.229Z,27.40
2022-07-30T12:49:39.381Z,27.60
2022-07-30T12:52:28.187Z,27.70
2022-07-30T12:55:06.549Z,27.90
2022-07-30T12:58:02.985Z,28.20
2022-07-30T13:00:48.241Z,28.40
2022-07-30T13:03:22.489Z,28.70
2022-07-30T13:05:51.689Z,29.00
2022-07-30T13:09:03.080Z,29.20
2022-07-30T13:11:39.898Z,29.30
2022-07-30T13:14:10.874Z,29.30
2022-07-30T13:16:39.403Z,29.30
2022-07-30T13:19:08.054Z,29.10
2022-07-30T13:21:36.382Z,28.90
2022-07-30T13:24:05.024Z,28.80
2022-07-30T13:26:34.559Z,28.70
2022-07-30T13:29:02.945Z,28.70
2022-07-30T13:31:42.950Z,28.70
2022-07-30T13:34:11.933Z,28.60
2022-07-30T13:36:40.351Z,28.70
2022-07-30T13:39:08.639Z,28.70
2022-07-30T13:41:37.030Z,28.70
2022-07-30T13:44:05.781Z,28.80
2022-07-30T13:46:35.403Z,28.70
2022-07-30T13:49:04.570Z,28.80
2022-07-30T13:51:32.878Z,28.80
2022-07-30T13:54:01.090Z,28.90
2022-07-30T13:56:29.328Z,28.90
2022-07-30T13:58:57.579Z,29.00
2022-07-30T14:01:25.834Z,29.00
2022-07-30T14:03:55.417Z,29.10
2022-07-30T14:06:23.786Z,29.10
2022-07-30T14:08:52.044Z,29.10
2022-07-30T14:11:20.305Z,28.90
2022-07-30T14:13:48.566Z,28.60
2022-07-30T14:16:35.733Z,28.60
2022-07-30T14:19:07.494Z,28.70
2022-07-30T14:21:35.744Z,28.50
2022-07-30T14:24:06.128Z,28.60
2022-07-30T14:26:36.812Z,28.70
2022-07-30T14:29:05.160Z,28.50
2022-07-30T14:31:33.454Z,28.60
2022-07-30T14:34:01.842Z,28.80
2022-07-30T14:36:31.442Z,29.00
2022-07-30T14:38:59.816Z,29.20
2022-07-30T14:41:28.363Z,29.30
2022-07-30T14:43:56.791Z,29.10
2022-07-30T14:46:25.000Z,29.10
2022-07-30T14:48:53.278Z,29.20
2022-07-30T14:51:26.640Z,29.20
2022-07-30T14:53:57.607Z,29.20
2022-07-30T14:56:26.107Z,29.20
2022-07-30T14:58:55.054Z,29.20
2022-07-30T15:01:23.446Z,29.20
2022-07-30T15:03:51.778Z,29.00
2022-07-30T15:06:19.970Z,28.80
2022-07-30T15:08:48.665Z,28.80
2022-07-30T15:11:18.271Z,28.70
2022-07-30T15:13:50.841Z,28.70
2022-07-30T15:16:19.284Z,28.70
2022-07-30T15:18:47.534Z,28.70
2022-07-30T15:21:15.829Z,28.60
2022-07-30T15:23:44.144Z,28.60
2022-07-30T15:26:12.352Z,28.60
2022-07-30T15:28:42.061Z,28.50
2022-07-30T15:31:10.272Z,28.40
2022-07-30T15:33:41.912Z,28.40
2022-07-30T15:36:10.292Z,28.30
2022-07-30T15:38:38.662Z,28.20
2022-07-30T15:41:09.317Z,28.20
2022-07-30T15:43:42.701Z,28.10
2022-07-30T15:46:10.979Z,27.90
2022-07-30T15:48:39.206Z,27.80
2022-07-30T15:51:07.906Z,27.70
2022-07-30T15:53:36.178Z,27.70
2022-07-30T15:56:04.569Z,27.70
2022-07-30T15:58:32.759Z,27.80
2022-07-30T16:01:02.715Z,27.90
2022-07-30T16:03:31.031Z,27.90
2022-07-30T16:05:59.209Z,27.90
2022-07-30T16:08:27.496Z,27.90
2022-07-30T16:10:55.774Z,27.80
2022-07-30T16:13:24.004Z,27.70
2022-07-30T16:15:52.698Z,27.60
2022-07-30T16:18:22.362Z,27.60
2022-07-30T16:20:50.563Z,27.60
2022-07-30T16:23:21.460Z,27.60
2022-07-30T16:25:50.072Z,27.60
2022-07-30T16:28:18.276Z,27.50
2022-07-30T16:30:50.930Z,27.40
2022-07-30T16:33:21.329Z,27.30
2022-07-30T16:35:51.233Z,27.30
2022-07-30T16:38:20.231Z,27.20
2022-07-30T16:40:48.585Z,27.10
2022-07-30T16:43:19.590Z,27.10
2022-07-30T16:45:48.599Z,27.10
2022-07-30T16:48:16.827Z,27.10
2022-07-30T16:50:46.475Z,27.10
2022-07-30T16:53:14.979Z,27.10
2022-07-30T16:55:43.463Z,27.00
2022-07-30T16:58:11.819Z,27.00
2022-07-30T17:00:40.106Z,26.90
2022-07-30T17:03:08.643Z,26.80
2022-07-30T17:05:37.790Z,26.70
2022-07-30T17:08:14.888Z,26.70
2022-07-30T17:10:46.080Z,26.70
2022-07-30T17:13:16.168Z,26.70
2022-07-30T17:15:44.511Z,26.60
2022-07-30T17:18:15.037Z,26.60
2022-07-30T17:20:43.354Z,26.60
2022-07-30T17:23:11.614Z,26.50
2022-07-30T17:25:41.224Z,26.30
2022-07-30T17:28:09.430Z,26.20
2022-07-30T17:30:37.596Z,26.10
2022-07-30T17:33:06.432Z,26.10
2022-07-30T17:35:34.804Z,26.00
2022-07-30T17:38:03.108Z,26.00
2022-07-30T17:40:32.080Z,25.90
2022-07-30T17:43:04.632Z,25.90
2022-07-30T17:45:33.127Z,25.90
2022-07-30T17:48:01.617Z,25.80
2022-07-30T17:50:30.160Z,25.80
2022-07-30T17:52:58.405Z,25.80
2022-07-30T17:55:29.085Z,25.70
2022-07-30T17:57:57.313Z,25.70
2022-07-30T18:00:26.867Z,25.50
2022-07-30T18:02:55.117Z,25.50
2022-07-30T18:05:23.326Z,25.40
2022-07-30T18:07:51.967Z,25.30
2022-07-30T18:10:20.265Z,25.20
2022-07-30T18:12:49.589Z,25.20
2022-07-30T18:15:18.182Z,25.10
2022-07-30T18:17:47.826Z,25.00
2022-07-30T18:20:16.276Z,24.90
2022-07-30T18:22:44.474Z,24.80
2022-07-30T18:25:18.927Z,24.80
2022-07-30T18:27:47.736Z,24.70
2022-07-30T18:30:16.407Z,24.60
2022-07-30T18:32:44.693Z,24.40
2022-07-30T18:35:15.311Z,24.30
2022-07-30T18:37:43.751Z,24.20
2022-07-30T18:40:13.733Z,24.10
2022-07-30T18:42:41.975Z,24.00
2022-07-30T18:45:14.710Z,23.80
2022-07-30T18:47:43.168Z,23.70
2022-07-30T18:50:13.574Z,23.60
2022-07-30T18:52:41.930Z,23.50
2022-07-30T18:55:11.462Z,23.40
2022-07-30T18:57:39.828Z,23.30
2022-07-30T19:00:10.030Z,23.30
2022-07-30T19:02:58.243Z,23.10
2022-07-30T19:05:28.065Z,23.10
2022-07-30T19:07:58.014Z,22.90
2022-07-30T19:10:27.201Z,22.80
2022-07-30T19:12:55.627Z,22.80
2022-07-30T19:15:24.009Z,22.70
2022-07-30T19:17:52.309Z,22.60
2022-07-30T19:20:20.909Z,22.50
2022-07-30T19:22:50.536Z,22.40
2022-07-30T19:25:20.914Z,22.30
2022-07-30T19:27:49.144Z,22.20
2022-07-30T19:30:17.405Z,22.20
2022-07-30T19:32:45.840Z,22.10
2022-07-30T19:35:14.629Z,22.00
2022-07-30T19:37:43.418Z,22.00
2022-07-30T19:40:14.356Z,21.90
2022-07-30T19:42:42.736Z,21.90
2022-07-30T19:45:13.198Z,21.90
2022-07-30T19:47:42.314Z,21.80
2022-07-30T19:50:11.418Z,21.80
2022-07-30T19:52:39.986Z,21.70
2022-07-30T19:55:35.051Z,21.70
2022-07-30T19:58:05.333Z,21.60
2022-07-30T20:00:49.553Z,21.60
2022-07-30T20:03:26.122Z,21.50
2022-07-30T20:05:59.976Z,21.50
2022-07-30T20:08:28.314Z,21.50
2022-07-30T20:10:59.276Z,21.30
2022-07-30T20:13:45.507Z,21.40
2022-07-30T20:16:15.347Z,21.30
2022-07-30T20:21:56.442Z,21.30
2022-07-30T20:24:21.815Z,21.20
2022-07-30T20:26:51.462Z,21.20
2022-07-30T20:29:20.809Z,21.10
2022-07-30T20:31:50.138Z,21.10
2022-07-30T20:34:23.341Z,21.00
2022-07-30T20:36:52.044Z,21.00
2022-07-30T20:39:22.126Z,21.00
2022-07-30T20:42:07.464Z,20.90
2022-07-30T20:44:37.781Z,20.90
2022-07-30T20:47:08.109Z,20.90
2022-07-30T20:49:36.874Z,20.80
2022-07-30T20:52:05.999Z,20.80
2022-07-30T20:54:34.408Z,20.80
2022-07-30T20:57:06.396Z,20.70
2022-07-30T20:59:35.618Z,20.70
2022-07-30T21:02:04.205Z,20.70
2022-07-30T21:04:32.719Z,20.60
2022-07-30T21:07:00.963Z,20.50
2022-07-30T21:09:49.743Z,20.50
2022-07-30T21:12:20.088Z,20.40
2022-07-30T21:15:01.198Z,20.40
2022-07-30T21:17:29.901Z,20.40
2022-07-30T21:19:58.540Z,20.30
2022-07-30T21:22:26.785Z,20.20
2022-07-30T21:24:54.974Z,20.20
2022-07-30T21:27:24.576Z,20.10
2022-07-30T21:29:58.388Z,20.00
2022-07-30T21:32:28.157Z,20.00
2022-07-30T21:34:56.582Z,19.90
2022-07-30T21:37:26.984Z,19.90
2022-07-30T21:40:06.369Z,19.80
2022-07-30T21:42:48.587Z,19.80
2022-07-30T21:45:17.207Z,19.70
2022-07-30T21:50:34.087Z,19.60
2022-07-30T21:53:02.295Z,19.50
2022-07-30T21:55:33.399Z,19.50
2022-07-30T21:58:08.850Z,19.50
2022-07-30T22:01:04.122Z,19.40
2022-07-30T22:04:03.633Z,19.40
2022-07-30T22:06:33.570Z,19.40
2022-07-30T22:09:03.457Z,19.30
2022-07-30T22:11:42.407Z,19.30
2022-07-30T22:14:12.622Z,19.20
2022-07-30T22:16:44.624Z,19.20
2022-07-30T22:19:15.181Z,19.10
2022-07-30T22:21:46.500Z,19.00
2022-07-30T22:24:28.909Z,19.00
2022-07-30T22:26:59.877Z,18.90
2022-07-30T22:29:34.540Z,18.80
2022-07-30T22:32:06.274Z,18.80
2022-07-30T22:34:36.308Z,18.80
2022-07-30T22:37:04.504Z,18.70
2022-07-30T22:39:50.281Z,18.70
2022-07-30T22:42:20.020Z,18.70
2022-07-30T22:44:49.635Z,18.70
2022-07-30T22:47:21.742Z,18.70
2022-07-30T22:50:08.342Z,18.60
2022-07-30T22:52:38.635Z,18.60
2022-07-30T22:55:09.077Z,18.60
2022-07-30T22:57:40.171Z,18.50
2022-07-30T23:00:13.732Z,18.50
2022-07-30T23:02:42.939Z,18.50
2022-07-30T23:05:11.726Z,18.50
2022-07-30T23:07:40.540Z,18.40
2022-07-30T23:10:12.387Z,18.40
2022-07-30T23:12:17.300Z,21.30
2022-07-30T23:12:27.744Z,19.60
2022-07-30T23:12:48.914Z,18.40
2022-07-30T23:15:18.655Z,18.40
2022-07-30T23:17:47.061Z,18.30
2022-07-30T23:20:18.274Z,18.20
2022-07-30T23:22:46.501Z,18.10
2022-07-30T23:25:14.703Z,18.00
2022-07-30T23:27:43.171Z,17.90
2022-07-30T23:30:12.505Z,17.90
2022-07-30T23:32:42.182Z,17.90
2022-07-30T23:35:11.128Z,17.90
2022-07-30T23:37:48.072Z,17.90
2022-07-30T23:40:18.508Z,17.80
2022-07-30T23:42:47.094Z,17.80
2022-07-30T23:45:15.259Z,17.60
2022-07-30T23:48:00.397Z,17.50
2022-07-30T23:50:30.625Z,17.50
2022-07-30T23:52:58.913Z,17.50
2022-07-30T23:55:28.007Z,17.50
2022-07-30T23:57:56.360Z,17.50
